createdAt,value
2022-12-02T00:02:28.392Z,1.63
2022-12-02T00:05:20.624Z,1.55
2022-12-02T00:07:57.585Z,1.50
2022-12-02T00:10:36.476Z,1.20
2022-12-02T00:13:25.356Z,1.50
2022-12-02T00:16:00.743Z,1.65
2022-12-02T00:18:31.852Z,1.50
2022-12-02T00:21:03.036Z,1.20
2022-12-02T00:23:33.750Z,1.60
2022-12-02T00:26:04.704Z,1.58
2022-12-02T00:28:35.705Z,1.23
2022-12-02T00:31:06.841Z,1.50
2022-12-02T00:33:37.633Z,1.40
2022-12-02T00:36:08.884Z,1.40
2022-12-02T00:38:39.732Z,1.63
2022-12-02T00:41:11.074Z,1.30
2022-12-02T00:44:00.340Z,1.23
2022-12-02T00:46:33.871Z,1.33
2022-12-02T00:49:13.670Z,1.40
2022-12-02T00:51:45.713Z,1.50
2022-12-02T00:54:17.465Z,1.48
2022-12-02T00:59:19.289Z,1.63
2022-12-02T01:01:50.580Z,1.40
2022-12-02T01:04:21.830Z,1.85
2022-12-02T01:06:52.553Z,1.37
2022-12-02T01:09:23.530Z,1.52
2022-12-02T01:11:54.471Z,1.63
2022-12-02T01:14:25.187Z,1.60
2022-12-02T01:16:56.406Z,1.45
2022-12-02T01:19:27.419Z,1.65
2022-12-02T01:21:58.411Z,1.55
2022-12-02T01:24:29.368Z,1.42
2022-12-02T01:27:00.673Z,1.75
2022-12-02T01:29:31.608Z,1.30
2022-12-02T01:32:03.561Z,1.58
2022-12-02T01:34:35.923Z,1.40
2022-12-02T01:37:07.021Z,1.50
2022-12-02T01:39:38.023Z,2.10
2022-12-02T01:42:09.225Z,1.80
2022-12-02T01:44:40.258Z,1.65
2022-12-02T01:47:11.188Z,1.60
2022-12-02T01:49:42.122Z,1.40
2022-12-02T01:52:13.141Z,1.60
2022-12-02T01:54:44.513Z,1.98
2022-12-02T01:57:17.516Z,1.67
2022-12-02T01:59:48.554Z,1.45
2022-12-02T02:02:29.598Z,1.58
2022-12-02T02:05:10.041Z,1.60
2022-12-02T02:07:42.270Z,1.67
2022-12-02T02:10:14.307Z,1.48
2022-12-02T02:12:47.795Z,1.73
2022-12-02T02:15:19.432Z,1.35
2022-12-02T02:20:23.588Z,1.58
2022-12-02T02:23:09.357Z,1.38
2022-12-02T02:25:49.926Z,1.40
2022-12-02T02:28:28.681Z,1.35
2022-12-02T02:31:00.293Z,1.83
2022-12-02T02:33:39.122Z,1.52
2022-12-02T02:38:41.759Z,1.42
2022-12-02T02:41:14.395Z,1.40
2022-12-02T02:43:45.690Z,1.40
2022-12-02T02:46:16.699Z,1.40
2022-12-02T02:48:47.896Z,1.10
2022-12-02T02:51:18.861Z,1.20
2022-12-02T02:53:49.867Z,1.33
2022-12-02T02:56:21.458Z,1.33
2022-12-02T02:58:53.047Z,1.10
2022-12-02T03:01:31.939Z,1.20
2022-12-02T03:04:07.179Z,1.20
2022-12-02T03:06:38.796Z,1.10
2022-12-02T03:09:11.768Z,1.45
2022-12-02T03:11:44.295Z,1.38
2022-12-02T03:14:16.031Z,1.50
2022-12-02T03:16:48.290Z,1.15
2022-12-02T03:19:20.163Z,1.38
2022-12-02T03:21:51.333Z,1.50
2022-12-02T03:24:22.291Z,1.65
2022-12-02T03:26:53.458Z,1.30
2022-12-02T03:29:24.599Z,1.10
2022-12-02T03:31:55.952Z,1.33
2022-12-02T03:34:27.305Z,1.10
2022-12-02T03:36:58.362Z,1.33
2022-12-02T03:39:29.383Z,1.33
2022-12-02T03:42:00.827Z,1.25
2022-12-02T03:44:32.942Z,1.27
2022-12-02T03:47:04.256Z,1.27
2022-12-02T03:49:36.499Z,1.33
2022-12-02T03:52:08.049Z,1.30
2022-12-02T03:54:39.510Z,1.33
2022-12-02T03:57:11.465Z,1.02
2022-12-02T04:02:12.891Z,1.20
2022-12-02T04:04:43.880Z,1.00
2022-12-02T04:07:14.954Z,1.00
2022-12-02T04:09:45.894Z,1.00
2022-12-02T04:12:16.881Z,0.80
2022-12-02T04:14:48.044Z,1.00
2022-12-02T04:17:19.148Z,1.45
2022-12-02T04:19:50.652Z,1.25
2022-12-02T04:22:21.390Z,1.10
2022-12-02T04:24:52.706Z,1.08
2022-12-02T04:27:23.729Z,1.73
2022-12-02T04:29:54.698Z,1.60
2022-12-02T04:32:25.533Z,1.60
2022-12-02T04:34:56.852Z,1.55
2022-12-02T04:37:27.593Z,1.40
2022-12-02T04:39:58.408Z,1.43
2022-12-02T04:42:29.431Z,1.40
2022-12-02T04:45:00.341Z,1.27
2022-12-02T04:47:33.328Z,1.67
2022-12-02T04:50:05.756Z,1.60
2022-12-02T04:52:36.746Z,1.73
2022-12-02T04:55:08.181Z,1.90
2022-12-02T04:57:39.621Z,2.17
2022-12-02T05:00:11.276Z,1.58
2022-12-02T05:05:12.910Z,1.45
2022-12-02T05:07:44.169Z,1.40
2022-12-02T05:10:15.004Z,1.40
2022-12-02T05:12:45.961Z,1.60
2022-12-02T05:15:17.450Z,1.80
2022-12-02T05:17:48.497Z,1.40
2022-12-02T05:20:19.638Z,1.70
2022-12-02T05:22:50.594Z,1.50
2022-12-02T05:25:21.691Z,1.67
2022-12-02T05:27:52.783Z,1.40
2022-12-02T05:30:24.425Z,1.60
2022-12-02T05:32:55.322Z,1.45
2022-12-02T05:35:26.359Z,1.60
2022-12-02T05:38:03.121Z,1.90
2022-12-02T05:40:35.722Z,1.58
2022-12-02T05:43:26.461Z,1.65
2022-12-02T05:45:59.346Z,1.60
2022-12-02T05:48:30.925Z,1.33
2022-12-02T05:51:01.902Z,1.40
2022-12-02T05:53:32.677Z,1.37
2022-12-02T05:56:03.751Z,1.43
2022-12-02T05:58:35.239Z,1.70
2022-12-02T06:01:27.168Z,1.40
2022-12-02T06:03:58.174Z,1.60
2022-12-02T06:06:32.815Z,1.30
2022-12-02T06:09:03.914Z,1.35
2022-12-02T06:11:40.330Z,1.47
2022-12-02T06:14:19.149Z,1.60
2022-12-02T06:17:02.928Z,6.32
2022-12-02T06:19:46.844Z,6.03
2022-12-02T06:22:36.802Z,1.95
2022-12-02T06:25:26.101Z,1.80
2022-12-02T06:28:16.797Z,2.72
2022-12-02T06:30:47.641Z,1.38
2022-12-02T06:33:38.107Z,1.65
2022-12-02T06:36:17.998Z,1.45
2022-12-02T06:38:55.889Z,1.30
2022-12-02T06:41:29.351Z,1.48
2022-12-02T06:44:20.160Z,1.40
2022-12-02T06:46:51.427Z,1.30
2022-12-02T06:49:27.768Z,1.60
2022-12-02T06:52:01.136Z,1.48
2022-12-02T06:54:32.999Z,1.40
2022-12-02T06:57:04.941Z,2.38
2022-12-02T06:59:36.611Z,1.60
2022-12-02T07:02:33.525Z,2.03
2022-12-02T07:05:04.344Z,1.10
2022-12-02T07:07:35.923Z,1.90
2022-12-02T07:10:10.181Z,1.65
2022-12-02T07:12:47.083Z,1.20
2022-12-02T07:15:35.260Z,2.03
2022-12-02T07:18:19.064Z,1.70
2022-12-02T07:20:51.319Z,1.70
2022-12-02T07:23:24.282Z,3.70
2022-12-02T07:25:57.297Z,2.95
2022-12-02T07:28:28.236Z,5.30
2022-12-02T07:30:59.242Z,2.90
2022-12-02T07:33:31.236Z,4.03
2022-12-02T07:36:02.172Z,8.60
2022-12-02T07:39:04.309Z,5.50
2022-12-02T07:41:24.597Z,3.78
2022-12-02T07:43:56.473Z,3.87
2022-12-02T07:48:57.782Z,1.65
2022-12-02T07:51:28.712Z,1.50
2022-12-02T07:53:59.760Z,1.13
2022-12-02T07:56:30.752Z,1.80
2022-12-02T07:59:11.789Z,1.60
2022-12-02T08:01:44.295Z,2.15
2022-12-02T08:04:15.154Z,1.60
2022-12-02T08:06:46.205Z,1.58
2022-12-02T08:09:17.235Z,2.10
2022-12-02T08:11:48.150Z,1.33
2022-12-02T08:14:19.221Z,2.10
2022-12-02T08:16:50.275Z,1.48
2022-12-02T08:19:21.081Z,1.83
2022-12-02T08:21:51.965Z,1.73
2022-12-02T08:24:22.980Z,1.55
2022-12-02T08:26:53.745Z,2.80
2022-12-02T08:29:24.655Z,5.77
2022-12-02T08:31:55.643Z,3.58
2022-12-02T08:34:26.881Z,3.03
2022-12-02T08:36:58.105Z,10.48
2022-12-02T08:39:29.079Z,13.33
2022-12-02T08:42:00.026Z,10.55
2022-12-02T08:44:30.813Z,9.57
2022-12-02T08:47:02.100Z,8.27
2022-12-02T08:49:33.044Z,3.60
2022-12-02T08:52:04.061Z,3.20
2022-12-02T08:54:34.969Z,2.47
2022-12-02T08:57:05.727Z,5.10
2022-12-02T08:59:36.592Z,1.83
2022-12-02T09:02:08.484Z,1.70
2022-12-02T09:04:39.414Z,1.40
2022-12-02T09:07:10.443Z,1.40
2022-12-02T09:09:41.657Z,1.95
2022-12-02T09:12:12.596Z,2.00
2022-12-02T09:14:43.669Z,2.33
2022-12-02T09:17:14.463Z,1.40
2022-12-02T09:19:45.375Z,1.33
2022-12-02T09:22:16.330Z,1.20
2022-12-02T09:24:47.141Z,1.67
2022-12-02T09:27:18.079Z,1.30
2022-12-02T09:29:49.056Z,1.20
2022-12-02T09:32:19.971Z,1.10
2022-12-02T09:34:51.077Z,1.20
2022-12-02T09:37:22.245Z,1.52
2022-12-02T09:39:53.298Z,1.33
2022-12-02T09:42:24.332Z,1.47
2022-12-02T09:44:59.100Z,1.50
2022-12-02T09:47:31.171Z,1.50
2022-12-02T09:50:02.159Z,1.55
2022-12-02T09:52:33.495Z,1.30
2022-12-02T09:55:05.451Z,1.33
2022-12-02T09:57:40.440Z,1.45
2022-12-02T10:00:20.758Z,1.67
2022-12-02T10:02:54.106Z,1.40
2022-12-02T10:05:31.277Z,1.40
2022-12-02T10:08:02.899Z,1.38
2022-12-02T10:10:41.223Z,1.50
2022-12-02T10:13:17.634Z,1.10
2022-12-02T10:15:48.777Z,1.70
2022-12-02T10:18:26.359Z,1.20
2022-12-02T10:20:57.345Z,1.45
2022-12-02T10:23:30.152Z,1.20
2022-12-02T10:26:15.269Z,1.30
2022-12-02T10:28:46.201Z,1.35
2022-12-02T10:33:56.912Z,1.40
2022-12-02T10:36:44.991Z,1.25
2022-12-02T10:39:32.567Z,1.20
2022-12-02T10:42:06.894Z,1.20
2022-12-02T10:44:40.656Z,3.37
2022-12-02T10:47:14.459Z,4.13
2022-12-02T10:50:03.364Z,4.15
2022-12-02T10:52:36.739Z,4.68
2022-12-02T10:55:09.139Z,5.88
2022-12-02T10:57:40.281Z,6.25
2022-12-02T11:00:21.786Z,6.15
2022-12-02T11:05:35.512Z,9.52
2022-12-02T11:08:06.618Z,4.22
2022-12-02T11:10:44.231Z,1.52
2022-12-02T11:13:14.937Z,1.48
2022-12-02T11:15:54.834Z,1.63
2022-12-02T11:18:28.862Z,2.25
2022-12-02T11:21:15.164Z,1.98
2022-12-02T11:23:49.101Z,5.00
2022-12-02T11:26:20.041Z,7.05
2022-12-02T11:29:08.013Z,5.18
2022-12-02T11:31:39.115Z,3.20
2022-12-02T11:34:28.249Z,3.00
2022-12-02T11:37:44.070Z,2.95
2022-12-02T11:40:17.528Z,1.83
2022-12-02T11:42:48.787Z,2.92
2022-12-02T11:45:19.440Z,2.63
2022-12-02T11:47:56.290Z,1.98
2022-12-02T11:50:32.295Z,1.90
2022-12-02T11:53:17.212Z,2.58
2022-12-02T11:55:53.685Z,3.78
2022-12-02T11:58:34.715Z,2.40
2022-12-02T12:01:17.317Z,2.20
2022-12-02T12:03:50.571Z,1.67
2022-12-02T12:06:22.672Z,1.63
2022-12-02T12:08:58.381Z,1.90
2022-12-02T12:11:30.490Z,3.53
2022-12-02T12:14:13.743Z,5.28
2022-12-02T12:16:50.897Z,4.65
2022-12-02T12:19:21.891Z,5.85
2022-12-02T12:21:58.068Z,5.17
2022-12-02T12:24:30.996Z,4.35
2022-12-02T12:27:07.718Z,3.80
2022-12-02T12:29:41.108Z,3.75
2022-12-02T12:32:12.801Z,3.17
2022-12-02T12:37:14.250Z,2.05
2022-12-02T12:39:45.457Z,2.08
2022-12-02T12:42:16.657Z,1.58
2022-12-02T12:44:47.669Z,1.85
2022-12-02T12:47:22.462Z,1.50
2022-12-02T12:49:53.934Z,1.45
2022-12-02T12:52:24.958Z,1.60
2022-12-02T12:54:55.737Z,1.50
2022-12-02T12:57:26.932Z,1.60
2022-12-02T12:59:57.765Z,1.33
2022-12-02T13:02:28.583Z,1.35
2022-12-02T13:05:00.064Z,1.50
2022-12-02T13:07:30.796Z,1.25
2022-12-02T13:10:04.705Z,1.20
2022-12-02T13:12:35.645Z,1.27
2022-12-02T13:15:06.959Z,1.43
2022-12-02T13:17:38.197Z,1.10
2022-12-02T13:20:09.908Z,1.30
2022-12-02T13:22:40.656Z,1.20
2022-12-02T13:25:12.471Z,1.30
2022-12-02T13:30:16.689Z,1.55
2022-12-02T13:32:49.985Z,1.20
2022-12-02T13:35:22.863Z,1.40
2022-12-02T13:37:54.057Z,1.52
2022-12-02T13:40:25.445Z,1.35
2022-12-02T13:42:56.947Z,1.33
2022-12-02T13:45:29.521Z,1.60
2022-12-02T13:48:04.208Z,1.65
2022-12-02T13:50:37.979Z,1.35
2022-12-02T13:53:09.248Z,1.30
2022-12-02T13:55:40.207Z,1.50
2022-12-02T13:58:11.033Z,1.63
2022-12-02T14:00:42.099Z,1.35
2022-12-02T14:03:13.243Z,1.73
2022-12-02T14:05:44.959Z,1.30
2022-12-02T14:08:15.866Z,1.15
2022-12-02T14:10:46.865Z,1.40
2022-12-02T14:13:21.104Z,1.43
2022-12-02T14:15:52.603Z,1.40
2022-12-02T14:18:26.954Z,1.30
2022-12-02T14:20:57.993Z,1.30
2022-12-02T14:23:28.924Z,1.40
2022-12-02T14:25:59.758Z,1.58
2022-12-02T14:28:30.600Z,1.10
2022-12-02T14:31:02.686Z,1.50
2022-12-02T14:34:09.158Z,1.17
2022-12-02T14:36:24.477Z,1.10
2022-12-02T14:38:55.350Z,1.20
2022-12-02T14:41:26.604Z,1.10
2022-12-02T14:43:57.403Z,1.10
2022-12-02T14:46:31.703Z,1.17
2022-12-02T14:49:31.111Z,1.50
2022-12-02T14:51:53.944Z,1.10
2022-12-02T14:54:24.889Z,1.83
2022-12-02T14:56:55.797Z,1.10
2022-12-02T14:59:26.718Z,1.00
2022-12-02T15:01:57.818Z,1.30
2022-12-02T15:04:30.068Z,1.00
2022-12-02T15:07:01.516Z,1.13
2022-12-02T15:09:32.872Z,1.20
2022-12-02T15:12:04.314Z,1.07
2022-12-02T15:14:35.409Z,1.23
2022-12-02T15:17:06.326Z,1.30
2022-12-02T15:19:37.332Z,1.20
2022-12-02T15:22:08.263Z,1.10
2022-12-02T15:24:39.173Z,1.25
2022-12-02T15:27:10.178Z,1.10
2022-12-02T15:29:41.523Z,1.20
2022-12-02T15:32:18.767Z,1.63
2022-12-02T15:34:50.419Z,1.20
2022-12-02T15:37:21.572Z,1.30
2022-12-02T15:39:52.627Z,1.38
2022-12-02T15:42:23.478Z,1.15
2022-12-02T15:44:54.753Z,1.20
2022-12-02T15:47:25.958Z,1.40
2022-12-02T15:49:56.974Z,1.40
2022-12-02T15:52:27.978Z,1.30
2022-12-02T15:54:58.905Z,1.20
2022-12-02T15:57:29.875Z,1.13
2022-12-02T16:00:00.847Z,1.20
2022-12-02T16:02:32.402Z,1.13
2022-12-02T16:05:03.393Z,1.60
2022-12-02T16:07:34.988Z,1.20
2022-12-02T16:10:06.720Z,1.30
2022-12-02T16:12:37.730Z,1.20
2022-12-02T16:15:09.001Z,1.20
2022-12-02T16:17:40.007Z,1.10
2022-12-02T16:20:13.491Z,1.10
2022-12-02T16:22:44.511Z,1.27
2022-12-02T16:25:15.425Z,0.93
2022-12-02T16:27:46.391Z,1.10
2022-12-02T16:30:17.456Z,1.00
2022-12-02T16:32:48.535Z,1.08
2022-12-02T16:35:19.387Z,1.00
2022-12-02T16:37:50.602Z,1.20
2022-12-02T16:40:21.498Z,1.33
2022-12-02T16:42:52.464Z,1.20
2022-12-02T16:45:23.364Z,1.20
2022-12-02T16:47:54.520Z,1.15
2022-12-02T16:50:25.538Z,1.00
2022-12-02T16:52:56.778Z,1.00
2022-12-02T16:55:27.502Z,1.00
2022-12-02T16:57:59.275Z,1.37
2022-12-02T17:00:30.281Z,0.90
2022-12-02T17:03:01.440Z,1.10
2022-12-02T17:05:32.426Z,1.30
2022-12-02T17:08:04.039Z,1.25
2022-12-02T17:10:35.464Z,1.00
2022-12-02T17:13:06.361Z,1.00
2022-12-02T17:15:37.139Z,1.15
2022-12-02T17:18:08.591Z,0.80
2022-12-02T17:20:39.441Z,1.10
2022-12-02T17:23:10.430Z,1.10
2022-12-02T17:25:41.251Z,1.02
2022-12-02T17:28:12.388Z,0.80
2022-12-02T17:30:43.286Z,1.20
2022-12-02T17:33:14.165Z,0.90
2022-12-02T17:35:45.144Z,0.90
2022-12-02T17:38:16.084Z,0.93
2022-12-02T17:40:47.124Z,1.30
2022-12-02T17:43:18.132Z,0.80
2022-12-02T17:45:49.096Z,1.13
2022-12-02T17:48:20.149Z,1.10
2022-12-02T17:50:51.002Z,1.38
2022-12-02T17:53:21.756Z,1.27
2022-12-02T17:55:52.723Z,1.10
2022-12-02T17:58:23.769Z,1.30
2022-12-02T18:00:54.831Z,1.08
2022-12-02T18:03:25.847Z,1.00
2022-12-02T18:05:57.036Z,1.10
2022-12-02T18:08:28.684Z,1.08
2022-12-02T18:10:59.675Z,1.00
2022-12-02T18:13:30.637Z,0.68
2022-12-02T18:16:01.631Z,1.08
2022-12-02T18:18:32.803Z,0.90
2022-12-02T18:21:04.271Z,1.40
2022-12-02T18:23:34.995Z,1.00
2022-12-02T18:26:06.059Z,1.10
2022-12-02T18:28:37.048Z,0.90
2022-12-02T18:31:08.782Z,0.80
2022-12-02T18:33:39.708Z,1.10
2022-12-02T18:36:10.867Z,0.80
2022-12-02T18:38:41.854Z,0.95
2022-12-02T18:41:12.972Z,0.80
2022-12-02T18:43:44.273Z,0.90
2022-12-02T18:46:15.454Z,0.90
2022-12-02T18:48:46.673Z,0.90
2022-12-02T18:51:17.933Z,0.60
2022-12-02T18:53:49.360Z,0.93
2022-12-02T18:58:55.648Z,0.80
2022-12-02T19:01:30.817Z,0.80
2022-12-02T19:04:04.906Z,1.00
2022-12-02T19:06:36.082Z,0.70
2022-12-02T19:09:08.085Z,0.80
2022-12-02T19:11:39.114Z,0.70
2022-12-02T19:14:10.204Z,0.90
2022-12-02T19:16:41.176Z,0.70
2022-12-02T19:19:12.077Z,0.67
2022-12-02T19:21:42.844Z,0.90
2022-12-02T19:24:13.654Z,0.68
2022-12-02T19:26:44.850Z,1.15
2022-12-02T19:29:15.703Z,0.70
2022-12-02T19:31:46.631Z,0.82
2022-12-02T19:34:17.667Z,0.80
2022-12-02T19:36:49.055Z,0.68
2022-12-02T19:39:19.915Z,0.70
2022-12-02T19:41:51.011Z,0.80
2022-12-02T19:44:21.856Z,0.90
2022-12-02T19:46:52.855Z,1.23
2022-12-02T19:49:23.960Z,1.00
2022-12-02T19:51:54.869Z,0.90
2022-12-02T19:54:25.859Z,0.80
2022-12-02T19:56:56.803Z,0.70
2022-12-02T19:59:27.592Z,0.80
2022-12-02T20:01:58.849Z,1.05
2022-12-02T20:04:44.696Z,1.17
2022-12-02T20:07:15.664Z,0.90
2022-12-02T20:09:46.924Z,0.70
2022-12-02T20:12:18.393Z,1.00
2022-12-02T20:17:19.865Z,0.82
2022-12-02T20:19:50.723Z,1.00
2022-12-02T20:22:21.700Z,0.80
2022-12-02T20:24:52.972Z,0.90
2022-12-02T20:27:24.047Z,0.70
2022-12-02T20:29:54.932Z,0.70
2022-12-02T20:32:25.876Z,0.80
2022-12-02T20:34:56.647Z,0.90
2022-12-02T20:37:27.576Z,0.95
2022-12-02T20:39:58.645Z,0.90
2022-12-02T20:42:29.387Z,0.70
2022-12-02T20:45:01.284Z,0.77
2022-12-02T20:47:33.136Z,0.80
2022-12-02T20:50:04.289Z,0.90
2022-12-02T20:52:35.402Z,1.08
2022-12-02T20:55:07.965Z,0.98
2022-12-02T20:57:38.907Z,0.93
2022-12-02T21:00:10.871Z,1.00
2022-12-02T21:02:42.191Z,0.90
2022-12-02T21:05:13.453Z,0.80
2022-12-02T21:07:44.640Z,0.80
2022-12-02T21:10:15.937Z,0.90
2022-12-02T21:12:47.212Z,0.90
2022-12-02T21:15:18.700Z,0.90
2022-12-02T21:17:49.608Z,0.80
2022-12-02T21:20:21.681Z,0.90
2022-12-02T21:22:52.438Z,0.90
2022-12-02T21:25:23.396Z,0.77
2022-12-02T21:27:54.293Z,0.90
2022-12-02T21:30:25.406Z,0.90
2022-12-02T21:32:56.530Z,0.93
2022-12-02T21:35:28.365Z,1.05
2022-12-02T21:38:00.324Z,0.98
2022-12-02T21:43:01.342Z,0.85
2022-12-02T21:45:32.430Z,0.70
2022-12-02T21:48:03.543Z,2.58
2022-12-02T21:50:34.440Z,0.93
2022-12-02T21:53:05.830Z,1.15
2022-12-02T21:55:36.581Z,0.88
2022-12-02T21:58:07.531Z,0.90
2022-12-02T22:00:38.526Z,0.80
2022-12-02T22:03:14.587Z,0.98
2022-12-02T22:05:45.876Z,1.00
2022-12-02T22:08:16.703Z,0.93
2022-12-02T22:10:48.047Z,0.80
2022-12-02T22:13:19.003Z,0.80
2022-12-02T22:15:49.941Z,0.70
2022-12-02T22:18:20.896Z,0.70
2022-12-02T22:20:51.817Z,0.80
2022-12-02T22:23:22.783Z,0.80
2022-12-02T22:25:54.462Z,0.70
2022-12-02T22:28:25.571Z,0.70
2022-12-02T22:30:58.195Z,1.00
2022-12-02T22:33:33.458Z,0.80
2022-12-02T22:36:04.755Z,0.70
2022-12-02T22:38:36.051Z,0.73
2022-12-02T22:41:07.719Z,0.75
2022-12-02T22:43:39.004Z,0.90
2022-12-02T22:46:10.017Z,0.68
2022-12-02T22:48:40.782Z,0.68
2022-12-02T22:51:11.701Z,0.90
2022-12-02T22:53:43.341Z,2.17
2022-12-02T22:56:14.222Z,0.90
2022-12-02T22:58:45.052Z,0.85
2022-12-02T23:01:16.060Z,0.80
2022-12-02T23:03:47.031Z,0.77
2022-12-02T23:06:18.072Z,1.05
2022-12-02T23:08:49.094Z,0.57
2022-12-02T23:11:20.547Z,0.68
2022-12-02T23:13:51.775Z,0.80
2022-12-02T23:16:23.075Z,0.85
2022-12-02T23:18:55.225Z,0.70
2022-12-02T23:21:26.438Z,1.00
2022-12-02T23:23:57.641Z,0.80
2022-12-02T23:26:28.840Z,0.70
2022-12-02T23:28:59.630Z,0.98
2022-12-02T23:31:30.502Z,1.10
2022-12-02T23:34:01.273Z,1.10
2022-12-02T23:36:35.066Z,0.60
2022-12-02T23:39:06.736Z,0.80
2022-12-02T23:41:37.717Z,0.80
2022-12-02T23:44:08.512Z,0.80
2022-12-02T23:46:39.311Z,0.80
2022-12-02T23:49:10.148Z,1.15
2022-12-02T23:51:40.909Z,1.25
2022-12-02T23:54:11.963Z,1.25
2022-12-02T23:56:42.700Z,0.93
2022-12-02T23:59:13.861Z,0.80
